sensor_id;sensor_type;location;lat;lon;timestamp;P1;durP1;ratioP1;P2;durP2;ratioP2
76355;SDS011;65184;50.952;4.366;2023-05-10T07:03:09;15.52;;;9.15;;
76355;SDS011;65184;50.952;4.366;2023-05-10T07:04:23;18.58;;;10.88;;
76355;SDS011;65184;50.952;4.366;2023-05-10T07:05:34;17.20;;;9.90;;
76355;SDS011;65184;50.952;4.366;2023-05-10T07:06:46;15.60;;;10.05;;
76355;SDS011;65184;50.952;4.366;2023-05-10T07:07:57;14.85;;;9.10;;
76355;SDS011;65184;50.952;4.366;2023-05-10T07:09:08;15.52;;;9.63;;
76355;SDS011;65184;50.952;4.366;2023-05-10T07:10:19;14.23;;;8.95;;
76355;SDS011;65184;50.952;4.366;2023-05-10T07:11:30;15.07;;;9.82;;
76355;SDS011;65184;50.952;4.366;2023-05-10T07:12:41;15.18;;;9.63;;
76355;SDS011;65184;50.952;4.366;2023-05-10T07:13:52;16.15;;;9.35;;
76355;SDS011;65184;50.952;4.366;2023-05-10T07:15:03;16.13;;;9.43;;
76355;SDS011;65184;50.952;4.366;2023-05-10T07:16:15;15.32;;;9.65;;
76355;SDS011;65184;50.952;4.366;2023-05-10T07:17:26;15.30;;;10.13;;
76355;SDS011;65184;50.952;4.366;2023-05-10T07:18:37;16.13;;;10.85;;
76355;SDS011;65184;50.952;4.366;2023-05-10T07:19:48;15.55;;;9.38;;
76355;SDS011;65184;50.952;4.366;2023-05-10T07:20:59;15.07;;;9.43;;
76355;SDS011;65184;50.952;4.366;2023-05-10T07:22:10;17.25;;;10.57;;
76355;SDS011;65184;50.952;4.366;2023-05-10T07:23:22;16.23;;;9.90;;
76355;SDS011;65184;50.952;4.366;2023-05-10T07:24:33;15.10;;;10.30;;
76355;SDS011;65184;50.952;4.366;2023-05-10T07:25:47;14.95;;;9.88;;
76355;SDS011;65184;50.952;4.366;2023-05-10T07:26:58;16.83;;;9.90;;
76355;SDS011;65184;50.952;4.366;2023-05-10T07:28:09;14.18;;;9.57;;
76355;SDS011;65184;50.952;4.366;2023-05-10T07:29:26;16.73;;;10.40;;
76355;SDS011;65184;50.952;4.366;2023-05-10T07:30:37;14.52;;;9.60;;
76355;SDS011;65184;50.952;4.366;2023-05-10T07:31:48;16.00;;;9.30;;
76355;SDS011;65184;50.952;4.366;2023-05-10T07:33:00;16.40;;;9.35;;
76355;SDS011;65184;50.952;4.366;2023-05-10T07:34:11;14.35;;;9.10;;
76355;SDS011;65184;50.952;4.366;2023-05-10T07:35:22;15.00;;;9.55;;
76355;SDS011;65184;50.952;4.366;2023-05-10T07:36:33;14.57;;;9.20;;
76355;SDS011;65184;50.952;4.366;2023-05-10T07:37:44;14.80;;;9.57;;
76355;SDS011;65184;50.952;4.366;2023-05-10T07:38:55;14.82;;;9.27;;
76355;SDS011;65184;50.952;4.366;2023-05-10T07:40:08;15.02;;;9.52;;
76355;SDS011;65184;50.952;4.366;2023-05-10T07:41:19;12.73;;;8.68;;
76355;SDS011;65184;50.952;4.366;2023-05-10T07:42:31;15.07;;;9.40;;
76355;SDS011;65184;50.952;4.366;2023-05-10T07:43:42;16.92;;;9.85;;
76355;SDS011;65184;50.952;4.366;2023-05-10T07:44:53;15.68;;;9.48;;
76355;SDS011;65184;50.952;4.366;2023-05-10T07:46:04;12.25;;;8.57;;
76355;SDS011;65184;50.952;4.366;2023-05-10T07:47:15;14.18;;;8.52;;
76355;SDS011;65184;50.952;4.366;2023-05-10T07:48:26;13.10;;;8.35;;
76355;SDS011;65184;50.952;4.366;2023-05-10T07:49:37;14.48;;;8.93;;
76355;SDS011;65184;50.952;4.366;2023-05-10T07:50:48;17.08;;;9.38;;
76355;SDS011;65184;50.952;4.366;2023-05-10T07:51:59;12.90;;;8.18;;
76355;SDS011;65184;50.952;4.366;2023-05-10T07:53:11;12.63;;;8.25;;
76355;SDS011;65184;50.952;4.366;2023-05-10T07:54:22;14.23;;;8.90;;
76355;SDS011;65184;50.952;4.366;2023-05-10T07:55:33;12.75;;;9.15;;
76355;SDS011;65184;50.952;4.366;2023-05-10T07:56:44;13.45;;;8.70;;
76355;SDS011;65184;50.952;4.366;2023-05-10T07:57:57;14.50;;;9.63;;
76355;SDS011;65184;50.952;4.366;2023-05-10T07:59:14;14.10;;;9.25;;
76355;SDS011;65184;50.952;4.366;2023-05-10T08:00:26;14.25;;;8.40;;
76355;SDS011;65184;50.952;4.366;2023-05-10T08:01:37;13.57;;;8.10;;
76355;SDS011;65184;50.952;4.366;2023-05-10T08:02:48;12.75;;;8.43;;
76355;SDS011;65184;50.952;4.366;2023-05-10T08:03:59;13.32;;;8.68;;
76355;SDS011;65184;50.952;4.366;2023-05-10T08:05:11;12.40;;;7.57;;
76355;SDS011;65184;50.952;4.366;2023-05-10T08:06:22;11.32;;;7.45;;
76355;SDS011;65184;50.952;4.366;2023-05-10T08:07:33;13.88;;;8.32;;
76355;SDS011;65184;50.952;4.366;2023-05-10T08:08:45;13.73;;;7.72;;
76355;SDS011;65184;50.952;4.366;2023-05-10T08:09:59;15.25;;;7.50;;
76355;SDS011;65184;50.952;4.366;2023-05-10T08:11:10;11.45;;;7.45;;
76355;SDS011;65184;50.952;4.366;2023-05-10T08:12:21;13.73;;;7.88;;
76355;SDS011;65184;50.952;4.366;2023-05-10T08:13:32;12.57;;;7.68;;
76355;SDS011;65184;50.952;4.366;2023-05-10T08:14:44;11.90;;;7.03;;
76355;SDS011;65184;50.952;4.366;2023-05-10T08:15:55;13.73;;;7.85;;
76355;SDS011;65184;50.952;4.366;2023-05-10T08:17:06;13.00;;;7.32;;
76355;SDS011;65184;50.952;4.366;2023-05-10T08:18:17;11.93;;;6.85;;
76355;SDS011;65184;50.952;4.366;2023-05-10T08:19:28;14.70;;;7.07;;
76355;SDS011;65184;50.952;4.366;2023-05-10T08:20:39;11.32;;;6.60;;
76355;SDS011;65184;50.952;4.366;2023-05-10T08:21:50;12.73;;;6.60;;
76355;SDS011;65184;50.952;4.366;2023-05-10T08:23:01;12.75;;;7.25;;
76355;SDS011;65184;50.952;4.366;2023-05-10T08:24:12;12.60;;;7.28;;
76355;SDS011;65184;50.952;4.366;2023-05-10T08:25:23;11.95;;;6.28;;
76355;SDS011;65184;50.952;4.366;2023-05-10T08:26:34;9.30;;;6.40;;
76355;SDS011;65184;50.952;4.366;2023-05-10T08:27:45;10.25;;;6.90;;
76355;SDS011;65184;50.952;4.366;2023-05-10T08:28:56;14.10;;;7.05;;
76355;SDS011;65184;50.952;4.366;2023-05-10T08:30:07;12.18;;;6.38;;
76355;SDS011;65184;50.952;4.366;2023-05-10T08:31:19;10.88;;;6.80;;
76355;SDS011;65184;50.952;4.366;2023-05-10T08:32:30;10.55;;;6.70;;
76355;SDS011;65184;50.952;4.366;2023-05-10T08:33:41;11.98;;;7.00;;
76355;SDS011;65184;50.952;4.366;2023-05-10T08:34:52;10.98;;;6.55;;
76355;SDS011;65184;50.952;4.366;2023-05-10T08:36:03;9.98;;;6.20;;
76355;SDS011;65184;50.952;4.366;2023-05-10T08:44:20;12.75;;;6.55;;
76355;SDS011;65184;50.952;4.366;2023-05-10T10:07:22;14.75;;;3.15;;
76355;SDS011;65184;50.952;4.366;2023-05-10T10:17:58;10.80;;;7.50;;
76355;SDS011;65184;50.952;4.366;2023-05-10T10:19:10;10.55;;;6.35;;
76355;SDS011;65184;50.952;4.366;2023-05-10T10:20:25;10.88;;;6.40;;
76355;SDS011;65184;50.952;4.366;2023-05-10T10:21:36;8.98;;;5.70;;
76355;SDS011;65184;50.952;4.366;2023-05-10T10:22:48;11.45;;;7.47;;
76355;SDS011;65184;50.952;4.366;2023-05-10T10:24:01;9.65;;;6.35;;
76355;SDS011;65184;50.952;4.366;2023-05-10T10:25:25;8.77;;;5.50;;
76355;SDS011;65184;50.952;4.366;2023-05-10T10:26:42;9.73;;;6.13;;
76355;SDS011;65184;50.952;4.366;2023-05-10T10:28:24;8.15;;;5.88;;
76355;SDS011;65184;50.952;4.366;2023-05-10T10:29:47;12.00;;;6.47;;
76355;SDS011;65184;50.952;4.366;2023-05-10T10:31:13;10.05;;;6.38;;
76355;SDS011;65184;50.952;4.366;2023-05-10T10:34:01;10.65;;;6.88;;
76355;SDS011;65184;50.952;4.366;2023-05-10T10:35:17;9.57;;;6.63;;
76355;SDS011;65184;50.952;4.366;2023-05-10T10:36:28;9.20;;;6.18;;
76355;SDS011;65184;50.952;4.366;2023-05-10T10:37:43;9.38;;;5.90;;
76355;SDS011;65184;50.952;4.366;2023-05-10T10:38:56;10.55;;;7.25;;
76355;SDS011;65184;50.952;4.366;2023-05-10T10:40:22;11.43;;;6.53;;
76355;SDS011;65184;50.952;4.366;2023-05-10T10:41:49;12.02;;;5.85;;
76355;SDS011;65184;50.952;4.366;2023-05-10T10:44:37;12.13;;;7.35;;
76355;SDS011;65184;50.952;4.366;2023-05-10T10:47:23;10.50;;;6.15;;
76355;SDS011;65184;50.952;4.366;2023-05-10T10:48:40;10.00;;;6.40;;
76355;SDS011;65184;50.952;4.366;2023-05-10T10:51:12;10.57;;;6.93;;
76355;SDS011;65184;50.952;4.366;2023-05-10T10:53:44;12.57;;;6.82;;
76355;SDS011;65184;50.952;4.366;2023-05-10T10:56:22;10.10;;;6.28;;
76355;SDS011;65184;50.952;4.366;2023-05-10T10:58:51;11.77;;;7.10;;
76355;SDS011;65184;50.952;4.366;2023-05-10T11:01:36;11.50;;;6.10;;
76355;SDS011;65184;50.952;4.366;2023-05-10T11:02:48;12.27;;;6.28;;
76355;SDS011;65184;50.952;4.366;2023-05-10T11:05:35;9.27;;;6.60;;
76355;SDS011;65184;50.952;4.366;2023-05-10T11:06:48;11.27;;;6.63;;
76355;SDS011;65184;50.952;4.366;2023-05-10T11:07:59;8.18;;;5.40;;
76355;SDS011;65184;50.952;4.366;2023-05-10T11:09:11;10.73;;;6.80;;
76355;SDS011;65184;50.952;4.366;2023-05-10T11:10:23;15.32;;;7.20;;
76355;SDS011;65184;50.952;4.366;2023-05-10T11:11:35;13.82;;;6.97;;
76355;SDS011;65184;50.952;4.366;2023-05-10T11:12:55;12.23;;;6.82;;
76355;SDS011;65184;50.952;4.366;2023-05-10T11:14:13;10.48;;;6.40;;
76355;SDS011;65184;50.952;4.366;2023-05-10T11:15:28;13.98;;;7.82;;
76355;SDS011;65184;50.952;4.366;2023-05-10T11:16:43;9.98;;;6.60;;
76355;SDS011;65184;50.952;4.366;2023-05-10T11:20:02;10.07;;;5.90;;
76355;SDS011;65184;50.952;4.366;2023-05-10T11:21:17;9.68;;;6.00;;
76355;SDS011;65184;50.952;4.366;2023-05-10T11:22:28;10.10;;;5.88;;
76355;SDS011;65184;50.952;4.366;2023-05-10T11:24:56;12.25;;;6.95;;
76355;SDS011;65184;50.952;4.366;2023-05-10T11:26:08;11.75;;;7.85;;
76355;SDS011;65184;50.952;4.366;2023-05-10T11:27:20;9.93;;;6.28;;
76355;SDS011;65184;50.952;4.366;2023-05-10T11:28:31;8.18;;;6.00;;
76355;SDS011;65184;50.952;4.366;2023-05-10T11:29:42;9.48;;;6.78;;
76355;SDS011;65184;50.952;4.366;2023-05-10T11:30:54;10.60;;;7.13;;
76355;SDS011;65184;50.952;4.366;2023-05-10T11:32:05;11.85;;;7.07;;
76355;SDS011;65184;50.952;4.366;2023-05-10T11:33:19;8.75;;;6.20;;
76355;SDS011;65184;50.952;4.366;2023-05-10T11:34:31;8.98;;;6.20;;
76355;SDS011;65184;50.952;4.366;2023-05-10T11:35:45;10.73;;;6.72;;
76355;SDS011;65184;50.952;4.366;2023-05-10T11:36:57;9.68;;;6.53;;
76355;SDS011;65184;50.952;4.366;2023-05-10T11:38:08;7.40;;;6.10;;
76355;SDS011;65184;50.952;4.366;2023-05-10T11:39:21;7.32;;;5.85;;
76355;SDS011;65184;50.952;4.366;2023-05-10T11:40:32;8.75;;;5.93;;
76355;SDS011;65184;50.952;4.366;2023-05-10T11:41:43;11.65;;;5.93;;
76355;SDS011;65184;50.952;4.366;2023-05-10T11:42:59;12.48;;;6.43;;
76355;SDS011;65184;50.952;4.366;2023-05-10T11:44:10;10.35;;;6.25;;
76355;SDS011;65184;50.952;4.366;2023-05-10T11:45:23;10.52;;;6.68;;
76355;SDS011;65184;50.952;4.366;2023-05-10T11:46:34;12.90;;;6.10;;
76355;SDS011;65184;50.952;4.366;2023-05-10T11:47:48;9.75;;;5.90;;
76355;SDS011;65184;50.952;4.366;2023-05-10T11:49:00;11.98;;;6.60;;
76355;SDS011;65184;50.952;4.366;2023-05-10T11:50:12;9.57;;;6.88;;
76355;SDS011;65184;50.952;4.366;2023-05-10T11:51:23;9.15;;;6.53;;
76355;SDS011;65184;50.952;4.366;2023-05-10T11:52:35;8.05;;;6.65;;
76355;SDS011;65184;50.952;4.366;2023-05-10T11:53:48;8.05;;;5.90;;
76355;SDS011;65184;50.952;4.366;2023-05-10T11:55:00;6.90;;;5.22;;
76355;SDS011;65184;50.952;4.366;2023-05-10T11:56:14;9.77;;;5.60;;
76355;SDS011;65184;50.952;4.366;2023-05-10T11:57:26;9.20;;;5.45;;
76355;SDS011;65184;50.952;4.366;2023-05-10T11:58:39;8.40;;;6.00;;
76355;SDS011;65184;50.952;4.366;2023-05-10T11:59:53;7.00;;;5.30;;
76355;SDS011;65184;50.952;4.366;2023-05-10T12:01:05;8.38;;;5.60;;
76355;SDS011;65184;50.952;4.366;2023-05-10T12:02:17;11.32;;;6.38;;
76355;SDS011;65184;50.952;4.366;2023-05-10T12:03:28;7.68;;;5.60;;
76355;SDS011;65184;50.952;4.366;2023-05-10T12:04:40;9.18;;;5.40;;
76355;SDS011;65184;50.952;4.366;2023-05-10T12:05:51;9.18;;;5.70;;
76355;SDS011;65184;50.952;4.366;2023-05-10T12:07:02;8.38;;;5.30;;
76355;SDS011;65184;50.952;4.366;2023-05-10T12:08:14;6.75;;;5.53;;
76355;SDS011;65184;50.952;4.366;2023-05-10T12:09:26;8.07;;;5.15;;
76355;SDS011;65184;50.952;4.366;2023-05-10T12:10:37;7.15;;;5.22;;
76355;SDS011;65184;50.952;4.366;2023-05-10T12:11:48;11.43;;;7.18;;
76355;SDS011;65184;50.952;4.366;2023-05-10T12:12:59;7.60;;;5.88;;
76355;SDS011;65184;50.952;4.366;2023-05-10T12:14:13;8.65;;;5.82;;
76355;SDS011;65184;50.952;4.366;2023-05-10T12:15:26;7.15;;;5.40;;
76355;SDS011;65184;50.952;4.366;2023-05-10T12:16:39;17.38;;;6.57;;
76355;SDS011;65184;50.952;4.366;2023-05-10T12:17:51;13.57;;;7.15;;
76355;SDS011;65184;50.952;4.366;2023-05-10T12:19:02;8.20;;;6.28;;
76355;SDS011;65184;50.952;4.366;2023-05-10T12:20:17;11.25;;;6.63;;
76355;SDS011;65184;50.952;4.366;2023-05-10T12:21:32;8.88;;;5.78;;
76355;SDS011;65184;50.952;4.366;2023-05-10T12:22:44;10.13;;;6.43;;
76355;SDS011;65184;50.952;4.366;2023-05-10T12:24:12;9.90;;;6.07;;
76355;SDS011;65184;50.952;4.366;2023-05-10T12:25:24;9.05;;;6.35;;
76355;SDS011;65184;50.952;4.366;2023-05-10T12:26:40;9.45;;;5.50;;
76355;SDS011;65184;50.952;4.366;2023-05-10T12:27:52;10.43;;;6.45;;
76355;SDS011;65184;50.952;4.366;2023-05-10T12:29:17;10.93;;;5.75;;
76355;SDS011;65184;50.952;4.366;2023-05-10T12:30:29;13.82;;;8.82;;
76355;SDS011;65184;50.952;4.366;2023-05-10T12:34:26;8.32;;;6.07;;
76355;SDS011;65184;50.952;4.366;2023-05-10T12:35:51;11.70;;;6.22;;
76355;SDS011;65184;50.952;4.366;2023-05-10T12:37:05;10.15;;;6.82;;
76355;SDS011;65184;50.952;4.366;2023-05-10T12:39:53;11.70;;;7.40;;
76355;SDS011;65184;50.952;4.366;2023-05-10T12:41:08;10.00;;;6.40;;
76355;SDS011;65184;50.952;4.366;2023-05-10T12:42:23;9.73;;;6.88;;
76355;SDS011;65184;50.952;4.366;2023-05-10T12:43:35;11.30;;;7.07;;
76355;SDS011;65184;50.952;4.366;2023-05-10T12:44:49;11.48;;;7.00;;
76355;SDS011;65184;50.952;4.366;2023-05-10T12:46:11;15.52;;;6.97;;
76355;SDS011;65184;50.952;4.366;2023-05-10T12:47:39;13.20;;;8.50;;
76355;SDS011;65184;50.952;4.366;2023-05-10T12:48:50;8.75;;;6.18;;
76355;SDS011;65184;50.952;4.366;2023-05-10T12:50:05;10.35;;;6.50;;
76355;SDS011;65184;50.952;4.366;2023-05-10T12:51:17;10.45;;;6.80;;
76355;SDS011;65184;50.952;4.366;2023-05-10T12:52:33;9.48;;;6.90;;
76355;SDS011;65184;50.952;4.366;2023-05-10T12:53:44;10.23;;;6.47;;
76355;SDS011;65184;50.952;4.366;2023-05-10T12:54:59;8.75;;;6.45;;
76355;SDS011;65184;50.952;4.366;2023-05-10T12:56:10;10.20;;;6.70;;
76355;SDS011;65184;50.952;4.366;2023-05-10T12:57:22;13.02;;;7.18;;
76355;SDS011;65184;50.952;4.366;2023-05-10T12:58:38;11.02;;;7.15;;
76355;SDS011;65184;50.952;4.366;2023-05-10T12:59:49;10.13;;;6.65;;
76355;SDS011;65184;50.952;4.366;2023-05-10T13:01:00;9.73;;;6.90;;
76355;SDS011;65184;50.952;4.366;2023-05-10T13:02:19;10.40;;;6.82;;
76355;SDS011;65184;50.952;4.366;2023-05-10T13:03:33;8.68;;;6.30;;
76355;SDS011;65184;50.952;4.366;2023-05-10T13:04:44;9.77;;;6.25;;
76355;SDS011;65184;50.952;4.366;2023-05-10T13:05:57;10.07;;;6.93;;
76355;SDS011;65184;50.952;4.366;2023-05-10T13:07:08;9.95;;;6.30;;
76355;SDS011;65184;50.952;4.366;2023-05-10T13:08:19;8.27;;;6.13;;
76355;SDS011;65184;50.952;4.366;2023-05-10T13:09:35;9.75;;;6.18;;
76355;SDS011;65184;50.952;4.366;2023-05-10T13:10:49;9.07;;;6.45;;
76355;SDS011;65184;50.952;4.366;2023-05-10T13:12:00;9.20;;;6.63;;
76355;SDS011;65184;50.952;4.366;2023-05-10T13:13:11;8.15;;;5.95;;
76355;SDS011;65184;50.952;4.366;2023-05-10T13:14:22;8.15;;;5.97;;
76355;SDS011;65184;50.952;4.366;2023-05-10T13:15:33;8.05;;;6.03;;
76355;SDS011;65184;50.952;4.366;2023-05-10T13:16:45;7.75;;;5.30;;
76355;SDS011;65184;50.952;4.366;2023-05-10T13:17:56;7.85;;;5.72;;
76355;SDS011;65184;50.952;4.366;2023-05-10T13:19:07;7.30;;;5.25;;
76355;SDS011;65184;50.952;4.366;2023-05-10T13:20:18;7.78;;;5.05;;
76355;SDS011;65184;50.952;4.366;2023-05-10T13:21:30;6.60;;;5.00;;
76355;SDS011;65184;50.952;4.366;2023-05-10T13:22:41;7.45;;;4.88;;
76355;SDS011;65184;50.952;4.366;2023-05-10T13:23:53;5.65;;;3.83;;
76355;SDS011;65184;50.952;4.366;2023-05-10T13:25:04;8.10;;;4.30;;
76355;SDS011;65184;50.952;4.366;2023-05-10T13:26:16;5.35;;;4.18;;
76355;SDS011;65184;50.952;4.366;2023-05-10T13:27:27;5.72;;;4.05;;
76355;SDS011;65184;50.952;4.366;2023-05-10T13:28:38;7.72;;;4.63;;
76355;SDS011;65184;50.952;4.366;2023-05-10T13:29:49;7.38;;;4.32;;
76355;SDS011;65184;50.952;4.366;2023-05-10T13:31:01;11.25;;;4.68;;
76355;SDS011;65184;50.952;4.366;2023-05-10T13:32:12;7.47;;;4.82;;
76355;SDS011;65184;50.952;4.366;2023-05-10T13:33:26;6.35;;;4.10;;
76355;SDS011;65184;50.952;4.366;2023-05-10T13:34:40;8.52;;;4.65;;
76355;SDS011;65184;50.952;4.366;2023-05-10T13:35:51;7.20;;;4.88;;
76355;SDS011;65184;50.952;4.366;2023-05-10T13:38:50;8.75;;;5.43;;
76355;SDS011;65184;50.952;4.366;2023-05-10T13:41:29;9.75;;;5.93;;
76355;SDS011;65184;50.952;4.366;2023-05-10T13:42:41;8.55;;;6.22;;
76355;SDS011;65184;50.952;4.366;2023-05-10T13:43:57;9.82;;;6.97;;
76355;SDS011;65184;50.952;4.366;2023-05-10T13:45:11;11.50;;;7.45;;
76355;SDS011;65184;50.952;4.366;2023-05-10T13:46:23;11.48;;;7.20;;
76355;SDS011;65184;50.952;4.366;2023-05-10T13:47:35;10.30;;;6.80;;
76355;SDS011;65184;50.952;4.366;2023-05-10T13:48:49;13.43;;;7.97;;
76355;SDS011;65184;50.952;4.366;2023-05-10T13:50:06;11.63;;;6.38;;
76355;SDS011;65184;50.952;4.366;2023-05-10T13:51:23;10.43;;;6.97;;
76355;SDS011;65184;50.952;4.366;2023-05-10T13:52:37;10.77;;;6.43;;
76355;SDS011;65184;50.952;4.366;2023-05-10T13:53:48;10.40;;;6.63;;
76355;SDS011;65184;50.952;4.366;2023-05-10T13:54:59;11.02;;;7.57;;
76355;SDS011;65184;50.952;4.366;2023-05-10T13:56:14;11.00;;;7.40;;
76355;SDS011;65184;50.952;4.366;2023-05-10T13:57:25;25.05;;;7.95;;
76355;SDS011;65184;50.952;4.366;2023-05-10T13:58:36;21.42;;;8.43;;
76355;SDS011;65184;50.952;4.366;2023-05-10T13:59:48;15.15;;;8.15;;
76355;SDS011;65184;50.952;4.366;2023-05-10T14:00:59;13.93;;;8.15;;
76355;SDS011;65184;50.952;4.366;2023-05-10T14:02:10;16.88;;;9.23;;
76355;SDS011;65184;50.952;4.366;2023-05-10T14:03:24;12.63;;;8.20;;
76355;SDS011;65184;50.952;4.366;2023-05-10T14:04:35;13.82;;;8.82;;
76355;SDS011;65184;50.952;4.366;2023-05-10T14:05:49;10.25;;;7.13;;
76355;SDS011;65184;50.952;4.366;2023-05-10T14:07:04;12.45;;;8.52;;
76355;SDS011;65184;50.952;4.366;2023-05-10T14:08:15;11.85;;;8.68;;
76355;SDS011;65184;50.952;4.366;2023-05-10T14:09:49;13.13;;;8.05;;
76355;SDS011;65184;50.952;4.366;2023-05-10T14:11:03;14.55;;;8.88;;
76355;SDS011;65184;50.952;4.366;2023-05-10T14:12:15;12.40;;;8.77;;
76355;SDS011;65184;50.952;4.366;2023-05-10T14:13:26;12.43;;;8.80;;
76355;SDS011;65184;50.952;4.366;2023-05-10T14:14:38;13.85;;;8.52;;
76355;SDS011;65184;50.952;4.366;2023-05-10T14:15:49;13.95;;;8.65;;
76355;SDS011;65184;50.952;4.366;2023-05-10T14:17:00;15.13;;;9.05;;
76355;SDS011;65184;50.952;4.366;2023-05-10T14:18:14;15.98;;;9.25;;
76355;SDS011;65184;50.952;4.366;2023-05-10T14:19:35;16.80;;;9.60;;
76355;SDS011;65184;50.952;4.366;2023-05-10T14:20:49;13.10;;;9.50;;
76355;SDS011;65184;50.952;4.366;2023-05-10T14:22:34;14.80;;;9.07;;
76355;SDS011;65184;50.952;4.366;2023-05-10T14:24:08;14.32;;;9.57;;
76355;SDS011;65184;50.952;4.366;2023-05-10T14:25:19;13.10;;;9.50;;
76355;SDS011;65184;50.952;4.366;2023-05-10T14:28:31;12.57;;;8.68;;
76355;SDS011;65184;50.952;4.366;2023-05-10T14:29:42;16.70;;;10.23;;
76355;SDS011;65184;50.952;4.366;2023-05-10T14:30:53;14.82;;;10.02;;
76355;SDS011;65184;50.952;4.366;2023-05-10T14:32:04;15.00;;;10.70;;
76355;SDS011;65184;50.952;4.366;2023-05-10T14:33:16;16.65;;;9.77;;
76355;SDS011;65184;50.952;4.366;2023-05-10T14:34:27;16.95;;;10.85;;
76355;SDS011;65184;50.952;4.366;2023-05-10T14:35:38;20.35;;;11.25;;
76355;SDS011;65184;50.952;4.366;2023-05-10T14:36:50;21.75;;;10.43;;
76355;SDS011;65184;50.952;4.366;2023-05-10T14:38:01;16.02;;;11.18;;
76355;SDS011;65184;50.952;4.366;2023-05-10T14:39:13;17.40;;;9.68;;
76355;SDS011;65184;50.952;4.366;2023-05-10T14:40:24;12.45;;;9.68;;
76355;SDS011;65184;50.952;4.366;2023-05-10T14:41:36;14.70;;;9.65;;
76355;SDS011;65184;50.952;4.366;2023-05-10T14:42:47;14.70;;;9.50;;
76355;SDS011;65184;50.952;4.366;2023-05-10T14:43:58;13.80;;;9.57;;
76355;SDS011;65184;50.952;4.366;2023-05-10T14:45:09;17.45;;;10.07;;
76355;SDS011;65184;50.952;4.366;2023-05-10T14:46:21;14.07;;;9.13;;
76355;SDS011;65184;50.952;4.366;2023-05-10T14:47:32;14.15;;;9.85;;
76355;SDS011;65184;50.952;4.366;2023-05-10T14:48:43;13.52;;;8.95;;
76355;SDS011;65184;50.952;4.366;2023-05-10T14:49:54;17.00;;;10.57;;
76355;SDS011;65184;50.952;4.366;2023-05-10T14:51:05;14.35;;;9.88;;
76355;SDS011;65184;50.952;4.366;2023-05-10T14:52:17;14.18;;;10.00;;
76355;SDS011;65184;50.952;4.366;2023-05-10T14:53:28;17.00;;;9.68;;
76355;SDS011;65184;50.952;4.366;2023-05-10T14:54:39;18.40;;;10.98;;
76355;SDS011;65184;50.952;4.366;2023-05-10T14:56:00;17.27;;;11.00;;
76355;SDS011;65184;50.952;4.366;2023-05-10T14:57:14;14.98;;;10.43;;
76355;SDS011;65184;50.952;4.366;2023-05-10T14:58:25;16.42;;;11.20;;
76355;SDS011;65184;50.952;4.366;2023-05-10T14:59:39;17.50;;;11.52;;
76355;SDS011;65184;50.952;4.366;2023-05-10T15:00:50;18.38;;;11.68;;
76355;SDS011;65184;50.952;4.366;2023-05-10T15:02:02;18.60;;;11.73;;
76355;SDS011;65184;50.952;4.366;2023-05-10T15:03:13;15.88;;;11.43;;
76355;SDS011;65184;50.952;4.366;2023-05-10T15:04:24;16.63;;;10.43;;
76355;SDS011;65184;50.952;4.366;2023-05-10T15:05:35;18.35;;;10.73;;
76355;SDS011;65184;50.952;4.366;2023-05-10T15:06:48;15.77;;;11.18;;
76355;SDS011;65184;50.952;4.366;2023-05-10T15:07:59;16.67;;;11.13;;
76355;SDS011;65184;50.952;4.366;2023-05-10T15:09:10;17.00;;;11.52;;
76355;SDS011;65184;50.952;4.366;2023-05-10T15:10:21;13.60;;;9.43;;
76355;SDS011;65184;50.952;4.366;2023-05-10T15:11:32;14.50;;;9.60;;
76355;SDS011;65184;50.952;4.366;2023-05-10T15:12:43;14.88;;;10.35;;
76355;SDS011;65184;50.952;4.366;2023-05-10T15:13:55;16.88;;;9.63;;
76355;SDS011;65184;50.952;4.366;2023-05-10T15:15:06;18.20;;;10.13;;
76355;SDS011;65184;50.952;4.366;2023-05-10T15:16:17;13.65;;;9.95;;
76355;SDS011;65184;50.952;4.366;2023-05-10T15:17:28;15.15;;;10.13;;
76355;SDS011;65184;50.952;4.366;2023-05-10T15:18:39;13.80;;;8.82;;
76355;SDS011;65184;50.952;4.366;2023-05-10T15:19:51;15.68;;;9.40;;
76355;SDS011;65184;50.952;4.366;2023-05-10T15:21:02;14.43;;;8.40;;
76355;SDS011;65184;50.952;4.366;2023-05-10T15:22:13;10.90;;;6.53;;
76355;SDS011;65184;50.952;4.366;2023-05-10T15:23:24;11.02;;;7.18;;
76355;SDS011;65184;50.952;4.366;2023-05-10T15:24:35;13.32;;;7.28;;
76355;SDS011;65184;50.952;4.366;2023-05-10T15:25:46;9.88;;;6.95;;
76355;SDS011;65184;50.952;4.366;2023-05-10T15:26:57;10.43;;;6.32;;
76355;SDS011;65184;50.952;4.366;2023-05-10T15:28:08;12.35;;;6.22;;
76355;SDS011;65184;50.952;4.366;2023-05-10T15:29:19;9.23;;;5.95;;
76355;SDS011;65184;50.952;4.366;2023-05-10T15:30:31;8.88;;;5.63;;
76355;SDS011;65184;50.952;4.366;2023-05-10T15:31:42;8.35;;;4.68;;
76355;SDS011;65184;50.952;4.366;2023-05-10T15:32:53;8.90;;;5.38;;
76355;SDS011;65184;50.952;4.366;2023-05-10T15:34:04;7.90;;;4.85;;
76355;SDS011;65184;50.952;4.366;2023-05-10T15:35:15;8.38;;;4.80;;
76355;SDS011;65184;50.952;4.366;2023-05-10T15:36:27;11.43;;;4.85;;
76355;SDS011;65184;50.952;4.366;2023-05-10T15:37:38;7.93;;;4.60;;
76355;SDS011;65184;50.952;4.366;2023-05-10T15:38:53;10.95;;;4.20;;
76355;SDS011;65184;50.952;4.366;2023-05-10T15:40:04;7.60;;;3.72;;
76355;SDS011;65184;50.952;4.366;2023-05-10T15:41:16;10.43;;;4.18;;
76355;SDS011;65184;50.952;4.366;2023-05-10T15:42:27;7.93;;;4.40;;
76355;SDS011;65184;50.952;4.366;2023-05-10T15:43:38;6.75;;;3.92;;
76355;SDS011;65184;50.952;4.366;2023-05-10T15:44:50;8.57;;;4.07;;
76355;SDS011;65184;50.952;4.366;2023-05-10T15:46:01;8.00;;;4.28;;
76355;SDS011;65184;50.952;4.366;2023-05-10T15:47:12;8.50;;;3.83;;
76355;SDS011;65184;50.952;4.366;2023-05-10T15:48:24;7.88;;;3.67;;
76355;SDS011;65184;50.952;4.366;2023-05-10T15:49:35;10.38;;;4.28;;
76355;SDS011;65184;50.952;4.366;2023-05-10T15:50:49;10.57;;;4.63;;
76355;SDS011;65184;50.952;4.366;2023-05-10T15:52:00;8.90;;;3.60;;
76355;SDS011;65184;50.952;4.366;2023-05-10T15:53:11;6.22;;;3.58;;
76355;SDS011;65184;50.952;4.366;2023-05-10T15:54:24;10.57;;;4.25;;
76355;SDS011;65184;50.952;4.366;2023-05-10T15:55:35;6.75;;;3.42;;
76355;SDS011;65184;50.952;4.366;2023-05-10T15:56:46;8.07;;;3.60;;
76355;SDS011;65184;50.952;4.366;2023-05-10T15:57:58;8.38;;;3.92;;
76355;SDS011;65184;50.952;4.366;2023-05-10T15:59:09;9.65;;;3.75;;
76355;SDS011;65184;50.952;4.366;2023-05-10T16:00:21;7.57;;;4.28;;
76355;SDS011;65184;50.952;4.366;2023-05-10T16:01:32;6.20;;;3.60;;
76355;SDS011;65184;50.952;4.366;2023-05-10T16:02:43;6.75;;;3.90;;
76355;SDS011;65184;50.952;4.366;2023-05-10T16:03:54;8.68;;;4.03;;
76355;SDS011;65184;50.952;4.366;2023-05-10T16:05:06;7.72;;;3.47;;
76355;SDS011;65184;50.952;4.366;2023-05-10T16:06:17;8.02;;;3.50;;
76355;SDS011;65184;50.952;4.366;2023-05-10T16:07:28;7.82;;;3.67;;
76355;SDS011;65184;50.952;4.366;2023-05-10T16:08:39;9.15;;;3.40;;
76355;SDS011;65184;50.952;4.366;2023-05-10T16:09:50;6.85;;;3.60;;
76355;SDS011;65184;50.952;4.366;2023-05-10T16:11:01;8.23;;;4.00;;
76355;SDS011;65184;50.952;4.366;2023-05-10T16:12:13;9.10;;;4.15;;
76355;SDS011;65184;50.952;4.366;2023-05-10T16:13:24;7.32;;;3.80;;
76355;SDS011;65184;50.952;4.366;2023-05-10T16:14:35;8.65;;;4.20;;
76355;SDS011;65184;50.952;4.366;2023-05-10T16:15:46;9.07;;;4.28;;
76355;SDS011;65184;50.952;4.366;2023-05-10T16:16:57;9.73;;;4.72;;
76355;SDS011;65184;50.952;4.366;2023-05-10T16:18:08;10.50;;;4.97;;
76355;SDS011;65184;50.952;4.366;2023-05-10T16:19:20;8.30;;;4.60;;
76355;SDS011;65184;50.952;4.366;2023-05-10T16:20:32;9.35;;;5.15;;